createdAt,value
2018-07-03T00:01:59.946Z,0.60
2018-07-03T00:04:28.148Z,0.80
2018-07-03T00:06:56.432Z,0.87
2018-07-03T00:09:24.635Z,0.90
2018-07-03T00:11:53.435Z,0.77
2018-07-03T00:14:21.698Z,1.13
2018-07-03T00:16:55.354Z,0.93
2018-07-03T00:19:23.639Z,0.80
2018-07-03T00:21:52.147Z,1.10
2018-07-03T00:24:20.435Z,0.60
2018-07-03T00:26:48.711Z,0.70
2018-07-03T00:29:16.935Z,0.83
2018-07-03T00:31:45.221Z,1.00
2018-07-03T00:34:14.232Z,0.70
2018-07-03T00:36:42.491Z,0.80
2018-07-03T00:39:10.671Z,0.50
2018-07-03T00:41:38.876Z,0.70
2018-07-03T00:44:07.098Z,0.67
2018-07-03T00:46:35.307Z,0.60
2018-07-03T00:49:03.656Z,0.80
2018-07-03T00:51:31.891Z,0.90
2018-07-03T00:54:02.851Z,0.80
2018-07-03T00:56:31.064Z,0.60
2018-07-03T00:58:59.327Z,0.77
2018-07-03T01:01:27.595Z,0.60
2018-07-03T01:03:55.875Z,0.90
2018-07-03T01:06:24.150Z,0.90
2018-07-03T01:08:52.368Z,0.70
2018-07-03T01:11:20.895Z,0.70
2018-07-03T01:13:49.123Z,0.80
2018-07-03T01:16:18.096Z,0.90
2018-07-03T01:18:46.391Z,0.70
2018-07-03T01:21:14.647Z,0.93
2018-07-03T01:23:42.877Z,0.90
2018-07-03T01:26:11.107Z,0.93
2018-07-03T01:28:39.371Z,0.93
2018-07-03T01:31:07.662Z,0.60
2018-07-03T01:33:35.898Z,0.60
2018-07-03T01:36:04.176Z,0.63
2018-07-03T01:38:32.410Z,0.60
2018-07-03T01:41:00.633Z,0.70
2018-07-03T01:43:28.875Z,0.50
2018-07-03T01:45:57.093Z,0.70
2018-07-03T01:48:25.777Z,0.70
2018-07-03T01:50:54.338Z,0.60
2018-07-03T01:53:22.647Z,0.53
2018-07-03T01:55:50.893Z,0.63
2018-07-03T01:58:19.373Z,1.23
2018-07-03T02:00:47.634Z,0.60
2018-07-03T02:03:16.362Z,0.70
2018-07-03T02:05:44.604Z,0.60
2018-07-03T02:08:12.823Z,0.63
2018-07-03T02:10:41.109Z,0.70
2018-07-03T02:13:09.352Z,0.60
2018-07-03T02:15:37.579Z,0.47
2018-07-03T02:18:06.087Z,0.60
2018-07-03T02:20:34.339Z,0.80
2018-07-03T02:23:03.012Z,0.70
2018-07-03T02:25:31.252Z,0.80
2018-07-03T02:27:59.731Z,0.83
2018-07-03T02:30:28.369Z,0.90
2018-07-03T02:32:56.606Z,0.70
2018-07-03T02:35:25.023Z,0.63
2018-07-03T02:37:53.245Z,0.70
2018-07-03T02:40:21.480Z,0.67
2018-07-03T02:42:49.898Z,0.70
2018-07-03T02:45:18.213Z,0.80
2018-07-03T02:47:46.435Z,0.60
2018-07-03T02:50:14.991Z,0.50
2018-07-03T02:52:43.278Z,0.80
2018-07-03T02:55:11.503Z,0.83
2018-07-03T02:57:39.759Z,1.10
2018-07-03T03:00:08.094Z,1.00
2018-07-03T03:05:19.435Z,0.63
2018-07-03T03:07:47.718Z,0.97
2018-07-03T03:10:16.296Z,0.80
2018-07-03T03:12:44.501Z,0.97
2018-07-03T03:15:12.815Z,1.37
2018-07-03T03:17:41.126Z,0.70
2018-07-03T03:20:09.299Z,0.70
2018-07-03T03:22:37.584Z,0.57
2018-07-03T03:25:05.855Z,0.47
2018-07-03T03:27:34.051Z,0.67
2018-07-03T03:30:02.275Z,0.83
2018-07-03T03:32:31.528Z,0.70
2018-07-03T03:34:59.743Z,0.70
2018-07-03T03:37:27.953Z,0.60
2018-07-03T03:39:56.188Z,0.70
2018-07-03T03:42:25.354Z,0.70
2018-07-03T03:44:53.566Z,0.60
2018-07-03T03:47:21.809Z,0.70
2018-07-03T03:49:50.115Z,0.70
2018-07-03T03:52:18.344Z,0.60
2018-07-03T03:54:46.571Z,1.00
2018-07-03T03:57:14.780Z,0.50
2018-07-03T03:59:43.060Z,0.77
2018-07-03T04:02:11.344Z,0.60
2018-07-03T04:04:39.590Z,0.70
2018-07-03T04:07:08.068Z,1.00
2018-07-03T04:09:36.527Z,0.70
2018-07-03T04:12:04.850Z,0.80
2018-07-03T04:14:33.103Z,0.80
2018-07-03T04:17:01.319Z,0.70
2018-07-03T04:19:32.222Z,0.90
2018-07-03T04:22:01.054Z,0.87
2018-07-03T04:24:29.346Z,1.10
2018-07-03T04:26:57.715Z,0.83
2018-07-03T04:29:26.195Z,0.67
2018-07-03T04:31:54.467Z,0.90
2018-07-03T04:34:22.675Z,0.90
2018-07-03T04:36:50.907Z,0.97
2018-07-03T04:39:19.159Z,0.80
2018-07-03T04:41:47.424Z,0.90
2018-07-03T04:44:15.647Z,0.90
2018-07-03T04:46:43.899Z,0.70
2018-07-03T04:49:12.125Z,0.72
2018-07-03T04:51:40.329Z,0.70
2018-07-03T04:54:08.590Z,1.15
2018-07-03T04:56:37.200Z,0.80
2018-07-03T04:59:06.036Z,0.90
2018-07-03T05:01:34.300Z,0.70
2018-07-03T05:04:03.107Z,0.98
2018-07-03T05:06:31.692Z,0.90
2018-07-03T05:08:59.962Z,0.68
2018-07-03T05:11:28.212Z,0.70
2018-07-03T05:13:57.131Z,0.88
2018-07-03T05:16:25.816Z,1.05
2018-07-03T05:18:54.040Z,1.00
2018-07-03T05:21:23.391Z,0.82
2018-07-03T05:23:51.647Z,0.90
2018-07-03T05:26:19.897Z,0.90
2018-07-03T05:28:48.130Z,0.85
2018-07-03T05:31:16.648Z,0.70
2018-07-03T05:33:44.870Z,0.90
2018-07-03T05:36:13.586Z,0.80
2018-07-03T05:38:42.150Z,1.05
2018-07-03T05:41:10.399Z,0.88
2018-07-03T05:43:38.642Z,1.67
2018-07-03T05:46:06.879Z,0.90
2018-07-03T05:48:35.091Z,0.85
2018-07-03T05:51:04.062Z,0.70
2018-07-03T05:53:32.551Z,1.07
2018-07-03T05:56:00.754Z,0.85
2018-07-03T05:58:28.991Z,1.02
2018-07-03T06:00:57.252Z,0.98
2018-07-03T06:03:25.551Z,1.00
2018-07-03T06:05:53.782Z,0.90
2018-07-03T06:08:22.011Z,0.93
2018-07-03T06:10:50.239Z,0.80
2018-07-03T06:13:18.471Z,1.00
2018-07-03T06:15:46.726Z,0.80
2018-07-03T06:18:14.939Z,0.85
2018-07-03T06:20:43.162Z,0.93
2018-07-03T06:23:12.233Z,0.65
2018-07-03T06:25:40.539Z,0.70
2018-07-03T06:28:08.827Z,0.82
2018-07-03T06:30:37.094Z,0.65
2018-07-03T06:33:05.420Z,0.95
2018-07-03T06:35:33.624Z,1.07
2018-07-03T06:38:01.908Z,0.57
2018-07-03T06:40:30.167Z,0.80
2018-07-03T06:42:58.408Z,0.82
2018-07-03T06:45:26.679Z,0.70
2018-07-03T06:47:55.877Z,0.82
2018-07-03T06:50:24.179Z,0.60
2018-07-03T06:52:52.472Z,0.57
2018-07-03T06:55:20.728Z,0.95
2018-07-03T06:57:48.990Z,0.60
2018-07-03T07:00:17.224Z,1.02
2018-07-03T07:02:45.461Z,1.00
2018-07-03T07:05:13.759Z,0.60
2018-07-03T07:07:42.315Z,0.80
2018-07-03T07:10:10.547Z,0.68
2018-07-03T07:12:38.815Z,0.62
2018-07-03T07:15:07.813Z,0.70
2018-07-03T07:17:36.244Z,0.70
2018-07-03T07:20:04.782Z,0.62
2018-07-03T07:22:33.036Z,0.60
2018-07-03T07:25:01.300Z,1.30
2018-07-03T07:27:29.531Z,0.65
2018-07-03T07:29:57.747Z,0.60
2018-07-03T07:32:26.248Z,0.60
2018-07-03T07:34:54.527Z,0.50
2018-07-03T07:37:22.795Z,0.60
2018-07-03T07:39:51.049Z,0.75
2018-07-03T07:42:19.288Z,0.60
2018-07-03T07:44:47.523Z,0.80
2018-07-03T07:47:15.787Z,0.90
2018-07-03T07:49:44.118Z,0.60
2018-07-03T07:52:12.357Z,0.60
2018-07-03T07:54:41.059Z,0.80
2018-07-03T07:57:09.074Z,0.70
2018-07-03T07:59:37.439Z,0.70
2018-07-03T08:02:06.079Z,0.80
2018-07-03T08:04:34.381Z,0.98
2018-07-03T08:07:02.620Z,0.70
2018-07-03T08:09:30.855Z,0.80
2018-07-03T08:11:59.403Z,0.90
2018-07-03T08:14:27.415Z,0.70
2018-07-03T08:16:55.652Z,0.75
2018-07-03T08:19:23.926Z,0.80
2018-07-03T08:21:52.137Z,0.72
2018-07-03T08:24:20.385Z,0.70
2018-07-03T08:26:48.626Z,0.50
2018-07-03T08:29:16.855Z,0.60
2018-07-03T08:31:45.139Z,0.78
2018-07-03T08:34:13.321Z,0.68
2018-07-03T08:36:41.948Z,0.80
2018-07-03T08:39:11.563Z,0.60
2018-07-03T08:41:39.893Z,0.70
2018-07-03T08:44:08.133Z,0.80
2018-07-03T08:46:36.372Z,0.80
2018-07-03T08:49:06.333Z,0.90
2018-07-03T08:51:34.927Z,0.60
2018-07-03T08:54:03.212Z,0.70
2018-07-03T08:56:31.439Z,0.80
2018-07-03T08:58:59.954Z,0.75
2018-07-03T09:01:28.139Z,0.88
2018-07-03T09:03:58.140Z,0.80
2018-07-03T09:06:26.645Z,0.62
2018-07-03T09:08:54.903Z,0.80
2018-07-03T09:11:23.124Z,0.70
2018-07-03T09:13:51.666Z,0.70
2018-07-03T09:16:19.920Z,0.70
2018-07-03T09:18:48.412Z,0.80
2018-07-03T09:21:16.670Z,0.82
2018-07-03T09:23:44.947Z,0.88
2018-07-03T09:26:13.191Z,0.80
2018-07-03T09:28:42.144Z,0.72
2018-07-03T09:31:10.427Z,0.70
2018-07-03T09:33:38.688Z,1.10
2018-07-03T09:36:06.964Z,0.80
2018-07-03T09:38:35.233Z,0.70
2018-07-03T09:41:03.513Z,0.70
2018-07-03T09:43:31.739Z,0.75
2018-07-03T09:46:00.272Z,0.60
2018-07-03T09:48:28.483Z,0.70
2018-07-03T09:50:56.758Z,0.90
2018-07-03T09:53:25.025Z,0.65
2018-07-03T09:55:53.329Z,0.80
2018-07-03T09:58:21.589Z,0.78
2018-07-03T10:00:55.343Z,0.60
2018-07-03T10:03:24.319Z,1.02
2018-07-03T10:05:52.603Z,0.70
2018-07-03T10:08:20.835Z,0.60
2018-07-03T10:10:49.102Z,0.90
2018-07-03T10:13:17.335Z,0.68
2018-07-03T10:15:45.828Z,0.65
2018-07-03T10:18:14.091Z,0.60
2018-07-03T10:20:42.399Z,0.60
2018-07-03T10:23:10.576Z,0.70
2018-07-03T10:25:38.836Z,0.80
2018-07-03T10:28:07.087Z,0.60
2018-07-03T10:30:35.347Z,0.70
2018-07-03T10:33:03.643Z,0.50
2018-07-03T10:35:31.868Z,1.02
2018-07-03T10:38:03.947Z,0.80
2018-07-03T10:40:32.691Z,0.80
2018-07-03T10:43:00.972Z,0.60
2018-07-03T10:45:29.188Z,0.82
2018-07-03T10:47:57.433Z,0.70
2018-07-03T10:50:25.791Z,0.57
2018-07-03T10:52:54.061Z,0.80
2018-07-03T10:55:22.255Z,0.90
2018-07-03T10:57:50.458Z,0.53
2018-07-03T11:00:18.671Z,0.80
2018-07-03T11:02:46.999Z,0.60
2018-07-03T11:05:15.271Z,0.70
2018-07-03T11:07:43.555Z,0.75
2018-07-03T11:10:11.825Z,0.53
2018-07-03T11:12:40.071Z,0.68
2018-07-03T11:15:08.252Z,0.60
2018-07-03T11:17:36.466Z,0.50
2018-07-03T11:20:05.119Z,0.70
2018-07-03T11:22:33.317Z,0.70
2018-07-03T11:25:01.868Z,0.70
2018-07-03T11:27:30.082Z,0.82
2018-07-03T11:29:58.329Z,0.70
2018-07-03T11:32:26.587Z,0.90
2018-07-03T11:34:54.818Z,0.70
2018-07-03T11:37:23.032Z,0.72
2018-07-03T11:39:51.313Z,0.78
2018-07-03T11:42:19.799Z,0.70
2018-07-03T11:44:48.080Z,0.78
2018-07-03T11:47:16.887Z,0.70
2018-07-03T11:49:45.148Z,0.80
2018-07-03T11:52:13.339Z,0.80
2018-07-03T11:54:42.498Z,0.70
2018-07-03T11:57:11.136Z,0.70
2018-07-03T11:59:40.160Z,0.70
2018-07-03T12:02:08.788Z,0.90
2018-07-03T12:04:37.104Z,1.10
2018-07-03T12:07:05.403Z,0.82
2018-07-03T12:09:33.633Z,0.90
2018-07-03T12:12:01.926Z,0.80
2018-07-03T12:14:30.116Z,0.70
2018-07-03T12:16:58.356Z,0.70
2018-07-03T12:19:26.644Z,0.80
2018-07-03T12:47:39.880Z,0.80
2018-07-03T12:50:08.160Z,0.95
2018-07-03T12:52:36.392Z,0.70
2018-07-03T12:55:04.679Z,0.80
2018-07-03T12:57:32.931Z,2.37
2018-07-03T13:00:01.190Z,0.80
2018-07-03T13:02:29.481Z,1.00
2018-07-03T13:04:57.785Z,1.87
2018-07-03T13:07:26.064Z,0.95
2018-07-03T13:09:54.319Z,0.65
2018-07-03T13:12:22.584Z,0.98
2018-07-03T13:14:50.858Z,1.37
2018-07-03T13:17:19.108Z,1.77
2018-07-03T13:19:47.362Z,1.62
2018-07-03T13:22:15.371Z,1.52
2018-07-03T13:24:43.565Z,0.62
2018-07-03T13:27:11.834Z,3.25
2018-07-03T13:29:40.109Z,2.08
2018-07-03T13:32:08.460Z,5.72
2018-07-03T13:34:36.700Z,0.82
2018-07-03T13:37:05.051Z,0.85
2018-07-03T13:39:33.331Z,0.82
2018-07-03T13:42:01.655Z,1.20
2018-07-03T13:44:30.473Z,1.77
2018-07-03T13:46:58.708Z,4.80
2018-07-03T13:49:26.920Z,2.67
2018-07-03T13:51:55.169Z,0.98
2018-07-03T13:54:23.383Z,0.88
2018-07-03T13:56:51.987Z,0.80
2018-07-03T13:59:20.234Z,0.80
2018-07-03T14:01:50.376Z,0.60
2018-07-03T14:04:18.702Z,0.85
2018-07-03T14:06:46.923Z,0.80
2018-07-03T14:09:15.327Z,0.62
2018-07-03T14:11:43.583Z,0.80
2018-07-03T14:14:11.777Z,0.70
2018-07-03T14:16:40.035Z,0.62
2018-07-03T14:19:08.307Z,0.55
2018-07-03T14:21:36.543Z,0.60
2018-07-03T14:24:04.820Z,0.50
2018-07-03T14:26:33.088Z,0.47
2018-07-03T14:29:01.324Z,0.70
2018-07-03T14:31:29.540Z,0.82
2018-07-03T14:33:57.775Z,0.72
2018-07-03T14:36:26.787Z,0.80
2018-07-03T14:38:55.427Z,0.80
2018-07-03T14:41:24.112Z,0.70
2018-07-03T14:43:52.322Z,1.00
2018-07-03T14:46:20.591Z,0.75
2018-07-03T14:48:48.851Z,0.72
2018-07-03T14:51:17.324Z,1.00
2018-07-03T14:53:45.532Z,0.70
2018-07-03T14:56:13.784Z,0.80
2018-07-03T14:58:42.004Z,1.30
2018-07-03T15:01:10.231Z,1.00
2018-07-03T15:03:38.804Z,1.00
2018-07-03T15:06:07.072Z,1.00
2018-07-03T15:08:35.318Z,1.02
2018-07-03T15:11:03.937Z,1.12
2018-07-03T15:13:32.171Z,0.95
2018-07-03T15:16:00.487Z,1.02
2018-07-03T15:18:34.059Z,1.20
2018-07-03T15:21:02.737Z,0.70
2018-07-03T15:23:31.951Z,1.15
2018-07-03T15:26:00.216Z,1.30
2018-07-03T15:28:28.448Z,0.80
2018-07-03T15:30:56.706Z,1.20
2018-07-03T15:33:24.916Z,1.10
2018-07-03T15:35:53.182Z,1.17
2018-07-03T15:38:21.398Z,1.10
2018-07-03T15:40:49.419Z,1.42
2018-07-03T15:43:17.689Z,1.17
2018-07-03T15:45:45.955Z,1.10
2018-07-03T15:48:14.183Z,1.30
2018-07-03T15:50:42.378Z,1.30
2018-07-03T15:53:10.573Z,1.40
2018-07-03T15:55:38.819Z,1.20
2018-07-03T15:58:06.815Z,1.20
2018-07-03T16:00:35.079Z,1.32
2018-07-03T16:03:14.615Z,1.37
2018-07-03T16:05:58.671Z,1.37
2018-07-03T16:08:42.763Z,1.02
2018-07-03T16:11:11.005Z,1.07
2018-07-03T16:13:39.232Z,1.05
2018-07-03T16:16:07.539Z,1.30
2018-07-03T16:18:35.806Z,1.10
2018-07-03T16:21:04.071Z,1.10
2018-07-03T16:23:32.342Z,1.05
2018-07-03T16:26:00.584Z,1.00
2018-07-03T16:28:28.844Z,1.10
2018-07-03T16:30:57.203Z,0.95
2018-07-03T16:33:25.811Z,1.30
2018-07-03T16:35:54.265Z,1.10
2018-07-03T16:38:22.491Z,1.15
2018-07-03T16:40:50.771Z,0.95
2018-07-03T16:43:19.008Z,1.07
2018-07-03T16:45:47.263Z,1.12
2018-07-03T16:48:15.547Z,1.00
2018-07-03T16:50:43.771Z,1.00
2018-07-03T16:53:12.138Z,0.90
2018-07-03T16:55:40.391Z,0.90
2018-07-03T16:58:08.599Z,1.20
2018-07-03T17:00:36.995Z,1.10
2018-07-03T17:03:05.239Z,0.95
2018-07-03T17:05:33.478Z,1.25
2018-07-03T17:08:01.770Z,0.82
2018-07-03T17:10:30.070Z,1.00
2018-07-03T17:12:58.317Z,1.15
2018-07-03T17:15:26.522Z,1.10
2018-07-03T17:17:55.298Z,1.22
2018-07-03T17:20:23.534Z,0.90
2018-07-03T17:22:51.774Z,1.07
2018-07-03T17:25:20.657Z,1.32
2018-07-03T17:27:48.831Z,0.90
2018-07-03T17:30:17.133Z,1.07
2018-07-03T17:32:45.606Z,2.10
2018-07-03T17:35:13.815Z,1.20
2018-07-03T17:37:42.029Z,1.10
2018-07-03T17:40:21.848Z,1.17
2018-07-03T17:43:01.643Z,0.85
2018-07-03T17:45:43.056Z,1.00
2018-07-03T17:48:12.613Z,0.95
2018-07-03T17:50:40.959Z,1.30
2018-07-03T17:53:09.235Z,0.93
2018-07-03T17:55:37.531Z,1.45
2018-07-03T17:58:06.491Z,1.25
2018-07-03T18:00:34.849Z,1.30
2018-07-03T18:03:03.408Z,1.70
2018-07-03T18:05:32.104Z,1.25
2018-07-03T18:08:00.669Z,1.10
2018-07-03T18:10:28.992Z,1.30
2018-07-03T18:12:57.255Z,1.00
2018-07-03T18:15:25.704Z,1.20
2018-07-03T18:17:54.516Z,1.17
2018-07-03T18:20:23.098Z,1.27
2018-07-03T18:22:52.378Z,1.40
2018-07-03T18:25:21.418Z,1.30
2018-07-03T18:27:49.747Z,2.15
2018-07-03T18:30:18.817Z,1.77
2018-07-03T18:32:47.472Z,1.75
2018-07-03T18:35:15.724Z,1.70
2018-07-03T18:37:44.055Z,1.30
2018-07-03T18:40:12.319Z,1.22
2018-07-03T18:42:42.475Z,1.50
2018-07-03T18:45:10.847Z,1.12
2018-07-03T18:47:39.120Z,1.02
2018-07-03T18:50:07.344Z,1.20
2018-07-03T18:52:35.596Z,1.45
2018-07-03T18:55:04.285Z,1.10
2018-07-03T18:57:33.353Z,0.85
2018-07-03T19:00:01.591Z,0.80
2018-07-03T19:02:29.892Z,1.30
2018-07-03T19:04:58.275Z,0.90
2018-07-03T19:07:26.647Z,1.10
2018-07-03T19:09:54.876Z,1.00
2018-07-03T19:12:23.511Z,1.25
2018-07-03T19:14:51.778Z,1.42
2018-07-03T19:17:20.006Z,1.22
2018-07-03T19:19:48.219Z,1.52
2018-07-03T19:22:18.723Z,1.20
2018-07-03T19:24:47.856Z,1.07
2018-07-03T19:27:16.153Z,1.37
2018-07-03T19:29:44.368Z,1.40
2018-07-03T19:32:12.588Z,1.80
2018-07-03T19:34:40.870Z,1.70
2018-07-03T19:37:09.500Z,1.80
2018-07-03T19:39:37.787Z,1.60
2018-07-03T19:42:06.107Z,1.67
2018-07-03T19:44:34.323Z,1.70
2018-07-03T19:47:02.845Z,1.35
2018-07-03T19:49:31.499Z,1.57
2018-07-03T19:51:59.786Z,1.42
2018-07-03T19:54:28.284Z,1.40
2018-07-03T19:56:56.962Z,1.32
2018-07-03T19:59:25.239Z,1.60
2018-07-03T20:01:53.471Z,1.42
2018-07-03T20:04:21.786Z,1.70
2018-07-03T20:06:50.919Z,1.77
2018-07-03T20:09:19.186Z,1.47
2018-07-03T20:11:47.438Z,1.30
2018-07-03T20:14:15.693Z,1.30
2018-07-03T20:16:44.235Z,1.65
2018-07-03T20:19:14.640Z,1.45
2018-07-03T20:21:44.688Z,1.42
2018-07-03T20:24:13.053Z,1.75
2018-07-03T20:26:41.836Z,1.80
2018-07-03T20:29:10.447Z,2.33
2018-07-03T20:31:38.763Z,3.60
2018-07-03T20:34:06.984Z,1.67
2018-07-03T20:36:35.235Z,1.77
2018-07-03T20:39:05.398Z,1.35
2018-07-03T20:41:33.668Z,1.90
2018-07-03T20:44:01.938Z,1.52
2018-07-03T20:46:30.171Z,2.08
2018-07-03T20:48:58.477Z,1.67
2018-07-03T20:51:27.637Z,1.90
2018-07-03T20:53:55.931Z,1.62
2018-07-03T20:56:24.179Z,1.80
2018-07-03T20:58:52.432Z,2.17
2018-07-03T21:01:21.420Z,2.50
2018-07-03T21:03:49.773Z,2.17
2018-07-03T21:06:18.790Z,1.80
2018-07-03T21:08:47.019Z,2.00
2018-07-03T21:11:15.226Z,2.72
2018-07-03T21:13:43.492Z,1.95
2018-07-03T21:16:11.931Z,2.37
2018-07-03T21:18:40.112Z,1.70
2018-07-03T21:21:08.357Z,1.82
2018-07-03T21:23:37.068Z,1.87
2018-07-03T21:26:05.481Z,2.08
2018-07-03T21:28:34.195Z,1.90
2018-07-03T21:31:02.475Z,2.20
2018-07-03T21:33:30.797Z,2.10
2018-07-03T21:35:59.233Z,2.05
2018-07-03T21:38:27.456Z,2.58
2018-07-03T21:40:55.728Z,2.33
2018-07-03T21:43:24.487Z,2.25
2018-07-03T21:45:52.754Z,2.60
2018-07-03T21:48:21.276Z,1.95
2018-07-03T21:50:49.817Z,2.75
2018-07-03T21:53:18.064Z,1.87
2018-07-03T21:55:46.366Z,2.30
2018-07-03T21:58:14.628Z,1.80
2018-07-03T22:00:42.885Z,2.02
2018-07-03T22:03:12.230Z,2.00
2018-07-03T22:05:42.236Z,2.00
2018-07-03T22:08:10.479Z,2.00
2018-07-03T22:10:39.664Z,1.98
2018-07-03T22:13:08.496Z,1.73
2018-07-03T22:15:36.763Z,2.00
2018-07-03T22:18:05.323Z,1.75
2018-07-03T22:20:33.562Z,2.10
2018-07-03T22:23:01.811Z,2.58
2018-07-03T22:25:30.058Z,1.95
2018-07-03T22:27:58.394Z,2.20
2018-07-03T22:30:27.258Z,1.87
2018-07-03T22:32:55.912Z,1.80
2018-07-03T22:35:24.155Z,1.67
2018-07-03T22:37:52.445Z,1.60
2018-07-03T22:40:20.710Z,1.60
2018-07-03T22:42:48.921Z,1.60
2018-07-03T22:45:17.175Z,1.50
2018-07-03T22:47:45.435Z,1.40
2018-07-03T22:50:13.724Z,1.60
2018-07-03T22:52:42.897Z,1.67
2018-07-03T22:55:11.504Z,1.80
2018-07-03T22:57:40.031Z,1.40
2018-07-03T23:00:08.275Z,1.65
2018-07-03T23:02:36.808Z,1.98
2018-07-03T23:05:05.107Z,1.55
2018-07-03T23:07:34.226Z,1.50
2018-07-03T23:10:02.467Z,1.75
2018-07-03T23:12:30.683Z,1.55
2018-07-03T23:14:58.942Z,1.70
2018-07-03T23:17:27.198Z,1.70
2018-07-03T23:19:55.471Z,1.80
2018-07-03T23:22:23.700Z,1.87
2018-07-03T23:24:52.073Z,2.05
2018-07-03T23:27:20.319Z,2.10
2018-07-03T23:29:48.556Z,1.90
2018-07-03T23:32:16.784Z,1.77
2018-07-03T23:34:44.991Z,1.63
2018-07-03T23:37:13.248Z,1.83
2018-07-03T23:39:41.522Z,1.80
2018-07-03T23:42:09.779Z,1.73
2018-07-03T23:44:38.054Z,2.10
2018-07-03T23:47:17.742Z,1.97
2018-07-03T23:49:57.251Z,1.87
2018-07-03T23:52:36.945Z,2.07
2018-07-03T23:55:16.603Z,1.90
2018-07-03T23:57:56.275Z,1.80
